Time;durP1;ratioP1;P1;durP2;ratioP2;P2;SDS_P1;SDS_P2;PMS_P1;PMS_P2;Temp;Humidity;BMP_temperature;BMP_pressure;BME280_temperature;BME280_humidity;BME280_pressure;Samples;Min_cycle;Max_cycle;Signal;HPM_P1;HPM_P2
2022/03/16 00:00:15;;;;;;;31.50;18.90;;;;;;;5.99;37.13;101187.98;1420131;90;21813;-81
2022/03/16 00:02:43;;;;;;;41.53;22.53;;;;;;;5.99;37.13;101187.98;1419551;92;22870;-81
2022/03/16 00:05:10;;;;;;;34.97;20.50;;;;;;;5.96;37.10;101192.12;1396336;93;21849;-81
2022/03/16 00:07:37;;;;;;;34.13;19.57;;;;;;;5.91;37.32;101186.28;1374162;93;22845;-81
2022/03/16 00:10:07;;;;;;;37.03;20.27;;;;;;;5.84;37.38;101177.48;1398311;93;22364;-80
2022/03/16 00:12:36;;;;;;;36.25;19.10;;;;;;;5.85;37.20;101187.52;1399540;93;22237;-81
2022/03/16 00:15:07;;;;;;;34.27;19.63;;;;;;;5.87;37.18;101172.03;1397778;93;21332;-81
2022/03/16 00:17:34;;;;;;;38.42;19.70;;;;;;;5.83;37.39;101162.64;1397777;92;21791;-81
2022/03/16 00:20:01;;;;;;;33.00;21.23;;;;;;;5.77;37.63;101159.09;1403087;93;21442;-80
2022/03/16 00:22:28;;;;;;;35.90;21.37;;;;;;;5.73;37.41;101147.12;1389679;93;21840;-80
2022/03/16 00:24:55;;;;;;;32.80;19.60;;;;;;;5.73;37.41;101147.12;1390344;94;22654;-81
2022/03/16 00:27:22;;;;;;;33.47;20.20;;;;;;;5.75;37.57;101137.81;1389646;94;21683;-81
2022/03/16 00:29:49;;;;;;;34.50;19.17;;;;;;;5.73;37.58;101131.84;1395950;94;21729;-81
2022/03/16 00:32:16;;;;;;;29.37;18.43;;;;;;;5.66;37.59;101121.70;1397645;92;21847;-81
2022/03/16 00:34:43;;;;;;;32.40;18.87;;;;;;;5.65;37.55;101117.88;1410796;92;21746;-81
2022/03/16 00:37:10;;;;;;;33.77;17.33;;;;;;;5.63;37.64;101115.33;1408212;92;22799;-81
2022/03/16 00:39:37;;;;;;;32.37;20.33;;;;;;;5.61;37.80;101111.11;1406964;92;21947;-80
2022/03/16 00:42:05;;;;;;;38.43;20.20;;;;;;;5.59;37.95;101109.08;1411678;92;22669;-79
2022/03/16 00:44:35;;;;;;;31.43;18.77;;;;;;;5.57;37.85;101116.20;1410277;92;21701;-78
2022/03/16 00:47:04;;;;;;;29.23;18.07;;;;;;;5.56;38.00;101107.97;1396344;93;21837;-78
2022/03/16 00:49:32;;;;;;;28.77;18.93;;;;;;;5.58;37.84;101111.31;1413275;92;21448;-78
2022/03/16 00:52:00;;;;;;;36.90;19.47;;;;;;;5.65;37.68;101104.74;1409726;92;21747;-78
2022/03/16 00:54:28;;;;;;;31.67;18.30;;;;;;;5.66;37.63;101099.85;1402916;92;21670;-78
2022/03/16 00:56:55;;;;;;;33.47;19.30;;;;;;;5.66;38.01;101098.53;1407076;92;23493;-79
2022/03/16 00:59:22;;;;;;;30.07;17.83;;;;;;;5.63;38.25;101094.33;1408540;92;21725;-79
2022/03/16 01:01:49;;;;;;;36.77;21.30;;;;;;;5.60;38.56;101084.50;1406021;92;22626;-79
2022/03/16 01:04:16;;;;;;;30.93;17.33;;;;;;;5.57;38.78;101084.22;1419470;92;21625;-78
2022/03/16 01:06:43;;;;;;;33.60;20.20;;;;;;;5.53;38.97;101080.59;1413076;92;22531;-79
2022/03/16 01:09:10;;;;;;;37.10;21.23;;;;;;;5.43;40.10;101077.70;1375985;92;21661;-79
2022/03/16 01:11:37;;;;;;;31.43;18.97;;;;;;;5.33;41.52;101080.56;1408994;92;21574;-79
2022/03/16 01:14:04;;;;;;;32.70;20.47;;;;;;;5.26;40.57;101064.81;1414634;92;21703;-79
2022/03/16 01:16:35;;;;;;;32.97;18.33;;;;;;;5.26;40.58;101053.00;1406708;92;21773;-79
2022/03/16 01:19:00;;;;;;;36.50;20.13;;;;;;;5.24;40.90;101032.12;1409412;93;22434;-79
2022/03/16 01:21:28;;;;;;;35.07;20.27;;;;;;;5.22;40.98;101031.38;1413410;92;21636;-79
2022/03/16 01:23:55;;;;;;;32.40;19.87;;;;;;;5.16;40.93;101015.55;1405738;92;21672;-78
2022/03/16 01:26:22;;;;;;;35.87;19.37;;;;;;;5.12;41.42;101013.20;1412146;92;21724;-78
2022/03/16 01:28:48;;;;;;;38.20;22.67;;;;;;;5.11;40.89;101006.28;1409752;92;21559;-78
2022/03/16 01:31:22;;;;;;;34.30;21.53;;;;;;;5.14;40.57;101006.92;1408913;92;21616;-78
2022/03/16 01:33:49;;;;;;;41.60;21.63;;;;;;;5.21;40.64;101004.77;1412120;92;21770;-78
2022/03/16 01:36:15;;;;;;;33.53;19.63;;;;;;;5.22;41.00;100999.87;1409604;92;21694;-78
2022/03/16 01:38:42;;;;;;;38.67;20.10;;;;;;;5.23;40.75;100996.30;1407534;92;21806;-79
2022/03/16 01:41:09;;;;;;;36.00;21.50;;;;;;;5.23;41.16;100991.05;1407427;92;21793;-81
2022/03/16 01:43:36;;;;;;;37.30;21.40;;;;;;;5.22;40.90;100982.83;1414645;92;21767;-81
2022/03/16 01:46:03;;;;;;;35.23;20.63;;;;;;;5.24;40.73;100978.33;1408741;92;21790;-81
2022/03/16 01:48:30;;;;;;;31.17;18.97;;;;;;;5.25;40.63;100973.91;1394466;92;21734;-81
2022/03/16 01:50:57;;;;;;;32.60;20.27;;;;;;;5.27;40.62;100979.44;1408382;92;22708;-81
2022/03/16 01:53:24;;;;;;;40.57;20.30;;;;;;;5.32;40.27;100973.87;1413059;92;21687;-81
2022/03/16 01:55:52;;;;;;;43.73;22.43;;;;;;;5.35;40.06;100965.34;1407660;92;21612;-81
2022/03/16 01:58:19;;;;;;;36.53;20.07;;;;;;;5.40;39.85;100950.11;1408846;92;21735;-81
2022/03/16 02:00:46;;;;;;;36.97;21.73;;;;;;;5.47;39.62;100938.75;1412364;92;21820;-81
2022/03/16 02:03:13;;;;;;;36.70;19.73;;;;;;;5.47;39.62;100938.75;1405429;92;21758;-80
2022/03/16 02:05:40;;;;;;;31.73;19.50;;;;;;;5.48;39.97;100942.21;1402130;92;22887;-80
2022/03/16 02:08:10;;;;;;;35.97;19.77;;;;;;;5.54;39.50;100940.48;1409164;92;21734;-80
2022/03/16 02:10:39;;;;;;;46.28;20.95;;;;;;;5.56;39.69;100937.30;1407607;92;21659;-80
2022/03/16 02:13:10;;;;;;;35.30;19.43;;;;;;;5.59;39.75;100939.71;1395623;92;21454;-80
2022/03/16 02:15:38;;;;;;;39.63;20.60;;;;;;;5.59;39.64;100935.77;1413647;92;22574;-80
2022/03/16 02:18:06;;;;;;;39.47;20.33;;;;;;;5.53;40.10;100933.56;1415037;92;21505;-79
2022/03/16 02:20:34;;;;;;;36.50;20.33;;;;;;;5.53;40.10;100933.56;1408562;92;21829;-80
2022/03/16 02:23:05;;;;;;;34.00;19.57;;;;;;;5.50;39.81;100924.11;1415416;92;21858;-79
2022/03/16 02:25:36;;;;;;;34.00;19.90;;;;;;;5.50;39.81;100924.11;1415233;92;22664;-79
2022/03/16 02:28:03;;;;;;;33.48;20.37;;;;;;;5.51;40.04;100921.84;1412404;92;21694;-79
2022/03/16 02:30:31;;;;;;;34.80;20.77;;;;;;;5.52;39.97;100914.80;1421291;92;21539;-79
2022/03/16 02:32:58;;;;;;;34.30;20.23;;;;;;;5.53;39.92;100922.58;1417606;92;21740;-79
2022/03/16 02:35:31;;;;;;;37.23;20.63;;;;;;;5.55;40.02;100925.09;1417374;92;21745;-79
2022/03/16 02:37:54;;;;;;;36.33;21.50;;;;;;;5.54;39.99;100916.85;1415871;91;21868;-79
2022/03/16 02:40:21;;;;;;;38.50;22.53;;;;;;;5.53;40.00;100919.95;1416150;92;22649;-79
2022/03/16 02:42:48;;;;;;;41.13;21.33;;;;;;;5.50;40.11;100914.08;1417359;92;22290;-79
2022/03/16 02:45:16;;;;;;;34.60;20.20;;;;;;;5.49;40.17;100917.63;1415476;92;21741;-79
2022/03/16 02:47:44;;;;;;;36.43;19.67;;;;;;;5.50;40.35;100924.58;1416043;92;21621;-79
2022/03/16 02:50:13;;;;;;;35.83;21.00;;;;;;;5.48;40.43;100919.89;1414734;92;21696;-80
2022/03/16 02:52:42;;;;;;;35.97;22.47;;;;;;;5.48;40.43;100919.89;1411384;92;22234;-80
2022/03/16 02:55:09;;;;;;;36.87;21.83;;;;;;;5.46;40.39;100924.40;1423246;92;21680;-80
2022/03/16 02:57:36;;;;;;;36.67;19.87;;;;;;;5.40;40.19;100921.71;1418322;92;21765;-80
2022/03/16 03:00:06;;;;;;;37.00;22.00;;;;;;;5.46;40.25;100936.21;1427770;92;21813;-80
2022/03/16 03:02:35;;;;;;;46.30;23.70;;;;;;;5.46;40.25;100936.21;1414757;92;22777;-81
2022/03/16 03:05:02;;;;;;;34.83;20.07;;;;;;;5.47;40.38;100939.20;1421222;92;21725;-81
2022/03/16 03:07:29;;;;;;;36.27;21.73;;;;;;;5.48;40.68;100931.70;1412132;92;21831;-80
2022/03/16 03:09:56;;;;;;;35.17;21.77;;;;;;;5.46;40.68;100933.59;1398154;92;21999;-80
2022/03/16 03:12:22;;;;;;;41.57;22.83;;;;;;;5.50;40.62;100942.48;1414321;92;21807;-79
2022/03/16 03:14:49;;;;;;;36.50;20.97;;;;;;;5.50;40.62;100942.48;1416961;92;21800;-79
2022/03/16 03:17:16;;;;;;;35.10;21.80;;;;;;;5.55;40.74;100947.41;1415802;92;21829;-80
2022/03/16 03:19:43;;;;;;;37.47;22.47;;;;;;;5.57;40.92;100946.36;1417837;92;22905;-79
2022/03/16 03:22:10;;;;;;;43.80;22.63;;;;;;;5.61;40.95;100943.05;1418157;92;22045;-79
2022/03/16 03:24:39;;;;;;;39.00;21.60;;;;;;;5.75;40.62;100956.58;1402939;92;22838;-78
2022/03/16 03:27:06;;;;;;;43.33;24.40;;;;;;;5.75;40.62;100956.58;1402045;93;21766;-78
2022/03/16 03:29:33;;;;;;;32.97;21.33;;;;;;;5.77;40.93;100963.41;1403113;93;21755;-78
2022/03/16 03:32:00;;;;;;;35.87;21.17;;;;;;;5.82;40.88;100982.34;1405473;93;22882;-78
2022/03/16 03:34:27;;;;;;;37.77;21.97;;;;;;;5.82;40.88;100982.34;1392904;93;21920;-80
2022/03/16 03:36:54;;;;;;;40.33;22.43;;;;;;;5.79;41.28;100992.22;1396490;93;21691;-80
2022/03/16 03:39:21;;;;;;;35.13;20.73;;;;;;;5.79;41.28;100992.22;1402643;92;21888;-80
2022/03/16 03:41:48;;;;;;;34.43;20.77;;;;;;;5.65;41.28;100991.81;1399987;93;21831;-80
2022/03/16 03:44:15;;;;;;;32.00;19.67;;;;;;;5.59;41.35;101006.67;1396047;93;22003;-80
2022/03/16 03:46:42;;;;;;;44.77;21.40;;;;;;;5.50;42.03;101016.00;1402938;93;22713;-80
2022/03/16 03:49:09;;;;;;;42.20;23.27;;;;;;;5.30;42.08;101027.79;1401674;93;21804;-80
2022/03/16 03:51:36;;;;;;;37.97;20.83;;;;;;;5.30;42.08;101027.79;1401386;93;21865;-80
2022/03/16 03:54:03;;;;;;;32.47;18.13;;;;;;;5.25;43.01;101029.86;1405374;93;21882;-81
2022/03/16 03:56:30;;;;;;;40.00;20.70;;;;;;;4.93;43.70;101047.66;1403364;93;21768;-81
2022/03/16 03:58:57;;;;;;;39.60;22.20;;;;;;;4.93;43.70;101047.66;1384580;93;21843;-81
2022/03/16 04:01:24;;;;;;;47.70;22.40;;;;;;;4.90;43.22;101046.54;1398177;93;21811;-81
2022/03/16 04:03:51;;;;;;;40.53;21.00;;;;;;;4.91;42.99;101058.70;1404134;93;21689;-81
2022/03/16 04:06:18;;;;;;;44.27;22.37;;;;;;;4.87;44.47;101063.30;1403877;93;21739;-81
2022/03/16 04:08:44;;;;;;;39.83;23.67;;;;;;;4.91;45.38;101047.73;1404209;93;21693;-81
2022/03/16 04:11:12;;;;;;;43.30;22.97;;;;;;;4.92;47.07;101049.44;1403383;93;22724;-81
2022/03/16 04:13:39;;;;;;;43.23;24.93;;;;;;;4.93;51.02;101043.24;1399663;93;21676;-81
2022/03/16 04:16:06;;;;;;;39.23;22.97;;;;;;;4.94;50.36;101036.21;1386351;93;21640;-81
2022/03/16 04:18:32;;;;;;;41.03;24.77;;;;;;;4.94;50.17;101034.42;1396245;93;22571;-81
2022/03/16 04:20:59;;;;;;;37.53;22.30;;;;;;;4.89;50.61;101024.72;1400545;93;21791;-81
2022/03/16 04:23:26;;;;;;;35.70;21.30;;;;;;;4.87;53.80;101030.52;1399695;91;21643;-81
2022/03/16 04:25:54;;;;;;;37.20;20.30;;;;;;;4.80;52.53;101022.64;1403199;93;21553;-81
2022/03/16 04:28:20;;;;;;;36.27;21.47;;;;;;;4.69;54.31;101018.53;1402538;93;21594;-81
2022/03/16 04:30:47;;;;;;;37.63;21.53;;;;;;;4.65;52.59;101017.05;1402509;93;22760;-81
2022/03/16 04:33:14;;;;;;;39.90;23.17;;;;;;;4.67;53.32;101013.88;1401764;93;21545;-81
2022/03/16 04:35:41;;;;;;;40.63;23.60;;;;;;;4.72;52.85;101006.58;1406012;93;21679;-81
2022/03/16 04:38:08;;;;;;;39.13;24.27;;;;;;;4.78;54.47;100998.80;1402700;93;21602;-81
2022/03/16 04:40:36;;;;;;;44.07;25.10;;;;;;;4.79;55.08;101001.30;1397964;92;21620;-81
2022/03/16 04:43:03;;;;;;;43.10;26.80;;;;;;;4.80;54.76;100989.86;1398506;92;21648;-81
2022/03/16 04:45:30;;;;;;;46.00;26.23;;;;;;;4.80;54.02;100987.23;1400309;93;21758;-81
2022/03/16 04:47:57;;;;;;;41.80;24.67;;;;;;;4.80;55.33;100986.41;1404768;93;21632;-81
2022/03/16 04:50:24;;;;;;;35.17;21.00;;;;;;;4.79;55.00;100994.75;1410289;93;21611;-81
2022/03/16 04:52:51;;;;;;;39.83;22.37;;;;;;;4.80;56.53;100992.48;1410415;93;21687;-81
2022/03/16 04:55:18;;;;;;;42.13;24.20;;;;;;;4.70;59.28;100994.02;1406859;93;21542;-81
2022/03/16 04:57:45;;;;;;;39.33;24.47;;;;;;;4.63;59.47;100989.64;1409181;93;22153;-78
2022/03/16 05:00:13;;;;;;;43.40;25.20;;;;;;;4.61;58.80;100984.11;1411438;91;21820;-78
2022/03/16 05:02:40;;;;;;;42.80;25.53;;;;;;;4.60;60.04;100982.41;1403528;93;21661;-79
2022/03/16 05:05:10;;;;;;;41.67;24.27;;;;;;;4.56;59.98;100972.59;1398638;93;22332;-78
2022/03/16 05:07:40;;;;;;;45.57;22.97;;;;;;;4.59;59.61;100975.48;1386801;94;22562;-78
2022/03/16 05:10:07;;;;;;;46.75;27.22;;;;;;;4.55;61.13;100966.98;1378762;94;21645;-78
2022/03/16 05:12:42;;;;;;;38.37;23.03;;;;;;;4.48;63.33;100962.56;1383107;94;21475;-78
2022/03/16 05:15:14;;;;;;;45.60;24.43;;;;;;;4.45;63.54;100964.07;1392422;94;21748;-76
2022/03/16 05:17:41;;;;;;;40.47;24.43;;;;;;;4.43;63.18;100958.55;1387083;94;21838;-79
2022/03/16 05:20:11;;;;;;;41.13;24.50;;;;;;;4.40;64.25;100956.98;1370068;94;21818;-78
2022/03/16 05:22:52;;;;;;;48.07;24.90;;;;;;;4.37;63.42;100949.28;1393311;94;21857;-80
2022/03/16 05:25:27;;;;;;;37.97;23.83;;;;;;;4.38;65.65;100953.61;1391104;92;22624;-80
2022/03/16 05:27:54;;;;;;;40.53;25.27;;;;;;;4.34;66.63;100940.30;1373892;95;22176;-80
2022/03/16 05:30:23;;;;;;;37.90;24.97;;;;;;;4.31;68.55;100939.19;1393946;93;21768;-79
2022/03/16 05:32:56;;;;;;;43.77;25.47;;;;;;;4.32;67.23;100934.34;1387647;94;21687;-78
2022/03/16 05:35:23;;;;;;;38.67;23.90;;;;;;;4.26;68.34;100930.31;1396296;94;21777;-77
2022/03/16 05:37:50;;;;;;;46.70;28.20;;;;;;;4.27;66.23;100931.16;1371860;94;21687;-78
2022/03/16 05:40:17;;;;;;;45.93;25.67;;;;;;;4.23;67.75;100924.40;1369567;95;21624;-77
2022/03/16 05:42:45;;;;;;;46.67;27.83;;;;;;;4.19;67.32;100920.30;1376450;95;21804;-77
2022/03/16 05:45:12;;;;;;;44.70;28.77;;;;;;;4.16;68.59;100930.50;1372518;95;21705;-77
2022/03/16 05:47:39;;;;;;;46.73;30.10;;;;;;;4.11;69.58;100920.76;1363319;95;22442;-78
2022/03/16 05:50:07;;;;;;;48.33;30.03;;;;;;;4.09;69.35;100922.66;1356761;95;22181;-77
2022/03/16 05:52:34;;;;;;;45.77;29.23;;;;;;;4.05;69.50;100914.11;1378458;95;22093;-80
2022/03/16 05:55:01;;;;;;;43.17;27.97;;;;;;;4.00;72.28;100913.58;1368050;95;22604;-81
2022/03/16 05:57:28;;;;;;;92.60;42.57;;;;;;;3.96;71.43;100913.38;1378550;95;21642;-81
2022/03/16 05:59:55;;;;;;;69.33;37.03;;;;;;;3.93;72.87;100908.80;1402724;94;21770;-79
2022/03/16 06:02:22;;;;;;;59.67;30.30;;;;;;;3.91;74.95;100903.64;1375587;95;21785;-78
2022/03/16 06:04:49;;;;;;;46.40;26.97;;;;;;;3.90;73.59;100898.03;1368057;95;21653;-78
2022/03/16 06:07:16;;;;;;;40.63;25.87;;;;;;;3.87;75.10;100898.23;1377039;95;22590;-81
2022/03/16 06:09:44;;;;;;;43.77;24.93;;;;;;;3.87;73.90;100892.98;1371754;95;21560;-81
2022/03/16 06:12:12;;;;;;;42.67;24.77;;;;;;;3.88;75.76;100897.28;1368616;95;22434;-81
2022/03/16 06:14:38;;;;;;;38.27;24.33;;;;;;;3.89;76.33;100892.44;1373924;95;22309;-81
2022/03/16 06:17:06;;;;;;;39.43;24.87;;;;;;;3.91;76.46;100898.40;1398451;94;22505;-80
2022/03/16 06:19:33;;;;;;;40.10;26.03;;;;;;;3.93;78.03;100895.70;1371368;95;21666;-79
2022/03/16 06:22:00;;;;;;;36.83;22.57;;;;;;;3.94;78.48;100881.22;1380417;89;21835;-81
2022/03/16 06:24:27;;;;;;;38.07;23.33;;;;;;;3.94;79.54;100882.53;1447030;88;21931;-81
2022/03/16 06:26:54;;;;;;;30.53;20.40;;;;;;;3.96;81.03;100880.64;1483049;88;22740;-80
2022/03/16 06:29:21;;;;;;;33.33;20.30;;;;;;;3.97;82.19;100879.72;1473804;88;21485;-80
2022/03/16 06:31:49;;;;;;;32.10;19.57;;;;;;;3.99;82.74;100876.52;1480127;88;21737;-80
2022/03/16 06:34:16;;;;;;;31.77;19.67;;;;;;;4.00;81.91;100875.60;1460403;88;21549;-80
2022/03/16 06:36:43;;;;;;;32.30;20.23;;;;;;;4.04;82.91;100875.77;1480526;88;21545;-80
2022/03/16 06:39:10;;;;;;;32.03;19.70;;;;;;;4.04;82.65;100863.98;1477099;87;21623;-80
2022/03/16 06:41:37;;;;;;;33.07;20.60;;;;;;;4.09;84.45;100865.50;1479970;88;21558;-80
2022/03/16 06:44:05;;;;;;;32.90;20.00;;;;;;;4.12;83.92;100860.91;1488407;88;21638;-80
2022/03/16 06:46:32;;;;;;;33.10;20.50;;;;;;;4.17;84.04;100861.91;1472187;87;21448;-80
2022/03/16 06:48:59;;;;;;;30.60;20.03;;;;;;;4.20;84.01;100859.95;1492295;88;22061;-81
2022/03/16 06:51:26;;;;;;;31.67;20.97;;;;;;;4.26;84.30;100866.59;1481564;88;21523;-80
2022/03/16 06:53:53;;;;;;;28.23;17.90;;;;;;;4.29;84.25;100866.41;1478281;88;21596;-81
2022/03/16 06:56:19;;;;;;;29.73;17.97;;;;;;;4.31;85.09;100868.44;1474425;88;21819;-82
2022/03/16 06:58:46;;;;;;;26.00;15.50;;;;;;;4.33;84.98;100873.59;1475578;88;21602;-81
2022/03/16 07:01:13;;;;;;;29.70;17.87;;;;;;;4.36;85.21;100880.78;1480385;88;21597;-81
2022/03/16 07:03:40;;;;;;;28.70;16.60;;;;;;;4.40;83.47;100880.98;1475327;88;21533;-81
2022/03/16 07:06:08;;;;;;;23.53;15.30;;;;;;;4.44;84.42;100889.48;1486678;87;21586;-80
2022/03/16 07:08:35;;;;;;;24.77;14.47;;;;;;;4.44;85.47;100883.77;1486852;87;22413;-80
2022/03/16 07:11:02;;;;;;;25.60;16.27;;;;;;;4.44;86.12;100885.55;1473844;88;21662;-81
2022/03/16 07:13:29;;;;;;;28.37;17.80;;;;;;;4.45;86.35;100888.06;1483127;87;21668;-81
2022/03/16 07:15:56;;;;;;;30.03;18.10;;;;;;;4.45;86.40;100886.75;1483037;88;21743;-80
2022/03/16 07:18:23;;;;;;;30.17;17.33;;;;;;;4.49;85.86;100880.87;1483906;88;21448;-80
2022/03/16 07:20:50;;;;;;;27.53;17.93;;;;;;;4.49;86.08;100886.11;1490051;88;21706;-80
2022/03/16 07:23:18;;;;;;;29.07;16.33;;;;;;;4.53;86.50;100881.87;1479474;87;21603;-81
2022/03/16 07:25:49;;;;;;;31.87;18.60;;;;;;;4.53;87.44;100883.17;1474387;88;22571;-82
2022/03/16 07:28:21;;;;;;;41.80;19.80;;;;;;;4.55;87.19;100877.02;1472238;88;21581;-81
2022/03/16 07:30:48;;;;;;;60.73;25.53;;;;;;;4.57;87.57;100872.49;1480814;88;21885;-81
2022/03/16 07:33:16;;;;;;;48.50;24.57;;;;;;;4.59;86.92;100875.87;1472444;88;21821;-81
2022/03/16 07:35:43;;;;;;;32.90;18.03;;;;;;;4.63;85.71;100883.89;1476668;87;21643;-81
2022/03/16 07:38:11;;;;;;;27.07;18.60;;;;;;;4.60;87.12;100886.23;1478217;88;22545;-82
2022/03/16 07:40:38;;;;;;;29.03;17.40;;;;;;;4.61;85.99;100891.88;1486798;87;22407;-80
2022/03/16 07:43:07;;;;;;;33.43;17.13;;;;;;;4.66;86.36;100892.43;1482969;87;21515;-80
2022/03/16 07:45:35;;;;;;;30.17;18.30;;;;;;;4.68;86.41;100893.15;1479454;88;21445;-80
2022/03/16 07:48:03;;;;;;;34.27;18.23;;;;;;;4.70;86.47;100899.62;1482658;88;22557;-80
2022/03/16 07:50:30;;;;;;;25.40;16.83;;;;;;;4.72;86.46;100892.50;1472801;88;21615;-80
2022/03/16 07:52:58;;;;;;;28.57;18.43;;;;;;;4.73;86.14;100902.05;1484969;87;21605;-80
2022/03/16 07:55:27;;;;;;;29.60;18.70;;;;;;;4.79;85.86;100899.02;1460078;88;22516;-80
2022/03/16 07:57:55;;;;;;;25.97;16.80;;;;;;;4.82;86.82;100903.23;1477893;88;22282;-80
2022/03/16 08:00:24;;;;;;;31.17;18.00;;;;;;;4.85;85.44;100903.88;1461329;88;21598;-80
2022/03/16 08:02:53;;;;;;;26.53;17.03;;;;;;;4.88;86.36;100907.60;1459166;88;21782;-80
2022/03/16 08:05:24;;;;;;;32.07;18.63;;;;;;;4.93;84.78;100909.47;1473662;88;21696;-80
2022/03/16 08:07:51;;;;;;;28.92;18.40;;;;;;;4.98;84.84;100907.39;1464387;88;22564;-81
2022/03/16 08:10:18;;;;;;;24.93;18.20;;;;;;;5.03;85.05;100902.30;1480029;88;21338;-80
2022/03/16 08:12:46;;;;;;;25.10;16.80;;;;;;;5.01;85.81;100906.35;1482614;88;21507;-80
2022/03/16 08:15:13;;;;;;;27.97;18.00;;;;;;;5.04;85.33;100908.77;1466746;86;21873;-80
2022/03/16 08:17:41;;;;;;;26.20;17.47;;;;;;;5.06;85.62;100911.28;1469828;88;22557;-80
2022/03/16 08:20:09;;;;;;;28.80;19.43;;;;;;;5.04;85.70;100910.56;1469202;88;21718;-80
2022/03/16 08:22:36;;;;;;;26.33;17.03;;;;;;;5.04;85.96;100912.71;1470865;88;22722;-80
2022/03/16 08:25:08;;;;;;;29.77;19.77;;;;;;;5.09;84.83;100911.08;1471683;88;21706;-80
2022/03/16 08:27:37;;;;;;;25.17;18.07;;;;;;;5.01;86.35;100905.52;1470777;88;21696;-81
2022/03/16 08:30:08;;;;;;;27.57;19.87;;;;;;;5.01;86.35;100905.52;1471921;88;22585;-80
2022/03/16 08:32:36;;;;;;;26.10;17.87;;;;;;;4.97;86.66;100916.19;1471751;88;22666;-83
2022/03/16 08:35:07;;;;;;;36.60;18.60;;;;;;;4.98;86.50;100903.45;1443313;89;21562;-84
2022/03/16 08:37:35;;;;;;;32.10;20.85;;;;;;;4.99;87.77;100909.54;1413423;92;21804;-85
2022/03/16 08:40:04;;;;;;;33.13;21.40;;;;;;;5.00;86.93;100911.20;1410645;92;22808;-83
2022/03/16 08:42:33;;;;;;;33.80;23.33;;;;;;;5.02;87.12;100907.19;1410063;92;22592;-83
2022/03/16 08:45:01;;;;;;;34.07;18.87;;;;;;;4.94;88.99;100909.83;1405143;92;21788;-84
2022/03/16 08:47:29;;;;;;;29.60;19.90;;;;;;;4.98;87.35;100910.02;1451517;90;22731;-83
2022/03/16 08:49:56;;;;;;;29.37;19.07;;;;;;;5.03;86.44;100901.83;1425083;91;21855;-84
2022/03/16 08:52:23;;;;;;;30.67;22.03;;;;;;;5.03;87.84;100900.98;1449986;89;21759;-83
2022/03/16 08:54:50;;;;;;;41.67;31.47;;;;;;;5.08;87.09;100904.16;1433674;90;21782;-83
2022/03/16 08:57:18;;;;;;;41.00;25.80;;;;;;;5.06;88.36;100897.69;1408061;91;21865;-84
2022/03/16 08:59:45;;;;;;;39.43;22.93;;;;;;;5.11;87.10;100903.95;1446728;90;21900;-83
2022/03/16 09:02:12;;;;;;;44.17;25.47;;;;;;;5.11;88.11;100911.35;1426595;91;23051;-84
2022/03/16 09:04:39;;;;;;;49.83;28.43;;;;;;;5.17;88.01;100909.63;1448762;90;21842;-83
2022/03/16 09:07:06;;;;;;;41.23;26.70;;;;;;;5.17;88.01;100909.63;1427415;91;21818;-85
2022/03/16 09:09:33;;;;;;;32.67;21.27;;;;;;;5.21;87.53;100905.05;1430359;90;22714;-85
2022/03/16 09:12:01;;;;;;;31.73;19.97;;;;;;;5.23;87.29;100909.70;1353574;91;21814;-84
2022/03/16 09:14:28;;;;;;;33.43;23.07;;;;;;;5.26;88.15;100908.19;1468901;89;21745;-85
2022/03/16 09:16:55;;;;;;;27.83;18.43;;;;;;;5.27;87.28;100909.05;1438767;90;22738;-84
2022/03/16 09:19:24;;;;;;;33.80;21.60;;;;;;;5.27;87.28;100909.05;1413641;92;22884;-83
2022/03/16 09:21:51;;;;;;;30.80;21.57;;;;;;;5.24;87.61;100904.84;1401669;93;22012;-84
2022/03/16 09:24:19;;;;;;;25.67;18.03;;;;;;;5.20;88.59;100914.67;1404057;93;21908;-85
2022/03/16 09:26:46;;;;;;;34.13;23.00;;;;;;;5.20;88.59;100914.67;1418273;91;21820;-81
2022/03/16 09:29:13;;;;;;;29.87;21.17;;;;;;;5.23;87.89;100904.92;1423984;91;21826;-80
2022/03/16 09:31:43;;;;;;;30.13;18.33;;;;;;;5.23;88.94;100911.48;1419028;91;21745;-80
2022/03/16 09:34:09;;;;;;;34.73;20.37;;;;;;;5.26;88.08;100909.49;1431382;91;21882;-83
2022/03/16 09:36:39;;;;;;;26.80;17.43;;;;;;;5.26;88.08;100909.49;1426745;91;21820;-84
2022/03/16 09:39:06;;;;;;;52.07;31.17;;;;;;;5.25;88.66;100904.37;1426885;91;23053;-82
2022/03/16 09:41:33;;;;;;;27.53;15.87;;;;;;;5.28;87.94;100913.34;1428802;91;21894;-84
2022/03/16 09:44:00;;;;;;;27.03;15.57;;;;;;;5.26;88.54;100913.44;1426168;91;21819;-88
2022/03/16 09:46:34;;;;;;;29.00;18.67;;;;;;;5.26;88.54;100913.44;1421453;90;21917;-82
2022/03/16 09:49:06;;;;;;;23.13;15.77;;;;;;;5.28;88.19;100914.18;1413239;91;21845;-82
2022/03/16 09:51:36;;;;;;;25.00;16.33;;;;;;;5.27;87.73;100911.67;1413712;91;23723;-82
2022/03/16 09:54:04;;;;;;;21.37;14.40;;;;;;;5.22;89.17;100912.44;1427142;91;22642;-82
2022/03/16 09:56:32;;;;;;;22.97;16.17;;;;;;;5.22;89.17;100912.44;1422057;91;21841;-80
2022/03/16 09:59:00;;;;;;;24.10;15.53;;;;;;;5.20;89.28;100916.47;1397918;92;21782;-81
2022/03/16 10:01:27;;;;;;;20.27;13.67;;;;;;;5.13;89.74;100908.64;1410311;93;21776;-80
2022/03/16 10:04:05;;;;;;;19.47;12.47;;;;;;;5.11;89.82;100910.52;1411945;91;21794;-79
2022/03/16 10:06:30;;;;;;;20.10;13.23;;;;;;;5.07;90.52;100909.88;1500260;91;22620;-79
2022/03/16 10:14:28;;;;;;;24.43;14.77;;;;;;;4.98;90.43;100916.58;1551937;88;21906;-80
2022/03/16 10:19:52;;;;;;;21.40;14.07;;;;;;;4.96;89.97;100928.94;1561275;87;21636;-80
2022/03/16 10:22:31;;;;;;;18.97;12.57;;;;;;;5.00;89.73;100920.87;1418233;87;21631;-79
2022/03/16 10:25:03;;;;;;;25.53;17.07;;;;;;;5.00;89.90;100922.17;1478015;87;21683;-81
2022/03/16 10:27:35;;;;;;;23.80;15.90;;;;;;;5.01;90.25;100927.81;1428671;88;23473;-80
2022/03/16 10:30:05;;;;;;;29.33;17.90;;;;;;;5.01;89.77;100929.13;1477073;88;21751;-80
2022/03/16 10:32:32;;;;;;;24.90;16.80;;;;;;;5.02;89.27;100929.02;1473356;88;21917;-81
2022/03/16 10:35:07;;;;;;;26.70;17.97;;;;;;;5.02;89.97;100932.11;1460720;88;23896;-80
2022/03/16 10:37:41;;;;;;;40.33;24.83;;;;;;;5.04;89.28;100936.80;1442742;90;21950;-80
2022/03/16 10:40:15;;;;;;;29.35;18.20;;;;;;;5.00;89.20;100940.54;1449315;90;21671;-82
2022/03/16 10:48:25;;;;;;;34.90;22.30;;;;;;;4.92;89.10;100949.77;1450282;89;21682;-82
2022/03/16 10:50:59;;;;;;;34.50;20.43;;;;;;;4.92;89.10;100949.77;1460530;89;21749;-83
2022/03/16 10:53:29;;;;;;;39.80;24.13;;;;;;;4.89;89.53;100952.58;1431600;90;22812;-82
2022/03/16 10:56:01;;;;;;;39.23;23.57;;;;;;;4.90;88.93;100952.95;1451976;88;21678;-82
2022/03/16 10:58:29;;;;;;;37.17;22.20;;;;;;;4.90;88.44;100954.73;1469220;88;21706;-82
2022/03/16 11:00:58;;;;;;;51.13;29.67;;;;;;;4.64;89.57;100953.77;1454250;88;21858;-81
2022/03/16 11:03:27;;;;;;;34.40;21.47;;;;;;;4.71;89.45;100957.67;1503922;89;21695;-82
2022/03/16 11:05:56;;;;;;;53.27;31.53;;;;;;;4.61;89.06;100953.96;1418025;88;21522;-82
2022/03/16 11:08:25;;;;;;;39.17;25.17;;;;;;;4.61;89.06;100953.96;1428481;88;21860;-83
2022/03/16 11:10:52;;;;;;;35.47;23.00;;;;;;;4.61;89.25;100967.06;1468615;88;21612;-82
2022/03/16 11:13:30;;;;;;;32.13;19.77;;;;;;;4.63;89.04;100958.61;1473516;88;23568;-82
2022/03/16 11:16:00;;;;;;;42.60;23.83;;;;;;;4.65;88.54;100963.30;1464065;88;21665;-81
2022/03/16 11:18:27;;;;;;;31.67;20.67;;;;;;;4.60;89.76;100966.67;1454845;89;21605;-82
2022/03/16 11:20:59;;;;;;;34.50;20.97;;;;;;;4.62;89.32;100966.13;1481528;89;21563;-82
2022/03/16 11:26:49;;;;;;;40.03;22.20;;;;;;;4.62;88.65;100972.67;1526023;90;20371;-81
2022/03/16 11:29:47;;;;;;;42.17;25.17;;;;;;;4.62;89.44;100975.30;1452334;90;21653;-80
2022/03/16 11:32:18;;;;;;;27.90;18.27;;;;;;;4.63;89.16;100976.53;1455980;90;21581;-80
2022/03/16 11:34:58;;;;;;;;;;;;;;;4.62;89.68;100976.13;1436830;88;21872;-81
2022/03/16 11:37:39;;;;;;;28.83;19.50;;;;;;;4.65;88.95;100967.23;1425800;90;20347;-79